Terminal Aerodrome Forecast
Issued by NWS Charleston, WV

Current Version | Previous Version | Text Only | Print | Product List | Glossary Off
Versions: 1 2 3 4 5 6 7 8 9 10 11 12 13 14 15 16 17 18 19 20 21 22 23 24 25

414
FTUS41 KRLX 011120
TAFEKN
TAF
KEKN 011120Z 0112/0212 VRB03KT P6SM BKN035
     FM011500 27011G18KT P6SM OVC015
     FM012200 27008G14KT P6SM OVC025
     FM020300 27008KT P6SM BKN020=

USA.gov is the U.S. government's official web portal to all federal, state and local government web resources and services.